首页
METAR-TAF:

METAR-TAF

机场 :

哈茨菲尔德-杰克逊亚特兰大国际机场

亚特兰大, 喬治亞, 美国

纬度: 33-38-25N, 经度: 084-25-37W, 海拔: 313米

当前天气观测

该预报发布于27分钟前的21:52 UTC
风速11节,风向西南
温度 19°C
湿度 78%
气压 1017 hPa
能見度: 16.1公里
多云层高于9000英尺
阴天层高于15000英尺
小雨

METAR: KATL 072152Z 22011KT 10SM -RA BKN090 OVC150 19/15 A3002 RMK AO2 PRESFR SLP160 PCPN VRY LGT P0000 T01940150

时间: 18:19 (22:19 UTC)

预报

该预报发布于32分钟前的21:47 UTC
预报有效从07日的 22点(UTC)到 08日的 24点(UTC)
风速12节,风向西转西南,有时为20节阵风
能見度: 10公里
散云层高于4000英尺
多云层高于6000英尺
附近有阵雨
短暂存在
从 07日的 22点(UTC)到 07日的 24点(UTC)
能見度: 9.7公里
散云层高于3000英尺
多云层高于5000英尺
阵雨
从 08日的 0000点(UTC)
风速7节,风向西南
能見度: 10公里
多云层高于4000英尺
附近有阵雨
从 08日的 0700点(UTC)
风速5节,风向西转西南
能見度: 10公里
多云层高于1000英尺
附近有阵雨
从 08日的 0900点(UTC)
风速7节,风向西
能見度: 10公里
阴天层高于700英尺
附近有阵雨
几率 30%
从 08日的 10点(UTC)到 08日的 13点(UTC)
小阵雨
从 08日的 1500点(UTC)
风速9节,风向西
能見度: 10公里
多云层高于2000英尺
附近有阵雨
从 08日的 1800点(UTC)
风速11节,风向西
能見度: 10公里
散云层高于4000英尺

TAF: KATL 072147Z 0722/0824 25012G20KT P6SM VCSH SCT040 BKN060 TEMPO 0722/0724 6SM SHRA SCT030 BKN050 FM080000 23007KT P6SM VCSH BKN040 FM080700 24005KT P6SM VCSH BKN010 FM080900 27007KT P6SM VCSH OVC007 PROB30 0810/0813 -SHRA FM081500 28009KT P6SM VCSH BKN020 FM081800 28011KT P6SM SCT040

超过4000个机场的气象观测和天气预报(METAR&TAF报告)。

可查询的气象台以黄色和红色小点在地图上表示。

将鼠标移到小点上方,可查看气象台名称。

然后点击查看天气观测和预报。

如需切换地图:点击带黑十字的绿色按钮放大地图;点击带横线的绿色按钮缩小地图;或者点击绿色箭头查看邻近地区的地图。


METAR-TAF: